sensor_id;sensor_type;location;lat;lon;timestamp;temperature;humidity
16907;DHT22;8570;52.380;4.654;2024-03-02T00:04:18;8.00;99.90
16907;DHT22;8570;52.380;4.654;2024-03-02T00:09:20;7.90;99.90
16907;DHT22;8570;52.380;4.654;2024-03-02T00:14:22;7.80;99.90
16907;DHT22;8570;52.380;4.654;2024-03-02T00:19:27;7.60;99.90
16907;DHT22;8570;52.380;4.654;2024-03-02T00:24:33;7.50;99.90
16907;DHT22;8570;52.380;4.654;2024-03-02T00:29:35;7.40;99.90
16907;DHT22;8570;52.380;4.654;2024-03-02T00:34:39;7.30;99.90
16907;DHT22;8570;52.380;4.654;2024-03-02T00:39:41;7.20;99.90
16907;DHT22;8570;52.380;4.654;2024-03-02T00:44:43;7.20;99.90
16907;DHT22;8570;52.380;4.654;2024-03-02T00:49:47;7.10;99.90
16907;DHT22;8570;52.380;4.654;2024-03-02T00:54:55;7.10;99.90
16907;DHT22;8570;52.380;4.654;2024-03-02T00:59:58;7.00;99.90
16907;DHT22;8570;52.380;4.654;2024-03-02T01:05:02;6.90;99.90
16907;DHT22;8570;52.380;4.654;2024-03-02T01:10:06;6.80;99.90
16907;DHT22;8570;52.380;4.654;2024-03-02T01:15:08;6.80;99.90
16907;DHT22;8570;52.380;4.654;2024-03-02T01:20:12;6.80;99.90
16907;DHT22;8570;52.380;4.654;2024-03-02T01:25:14;6.70;99.90
16907;DHT22;8570;52.380;4.654;2024-03-02T01:30:16;6.70;99.90
16907;DHT22;8570;52.380;4.654;2024-03-02T01:35:19;6.70;99.90
16907;DHT22;8570;52.380;4.654;2024-03-02T01:40:21;6.60;99.90
16907;DHT22;8570;52.380;4.654;2024-03-02T01:45:26;6.60;99.90
16907;DHT22;8570;52.380;4.654;2024-03-02T01:50:31;6.60;99.90
16907;DHT22;8570;52.380;4.654;2024-03-02T01:55:33;6.50;99.90
16907;DHT22;8570;52.380;4.654;2024-03-02T02:00:35;6.50;99.90
16907;DHT22;8570;52.380;4.654;2024-03-02T02:05:39;6.50;99.90
16907;DHT22;8570;52.380;4.654;2024-03-02T02:10:56;6.40;99.90
16907;DHT22;8570;52.380;4.654;2024-03-02T02:16:07;6.40;99.90
16907;DHT22;8570;52.380;4.654;2024-03-02T02:21:10;6.40;99.90
16907;DHT22;8570;52.380;4.654;2024-03-02T02:26:13;6.40;99.90
16907;DHT22;8570;52.380;4.654;2024-03-02T02:31:16;6.40;99.90
16907;DHT22;8570;52.380;4.654;2024-03-02T02:36:18;6.30;99.90
16907;DHT22;8570;52.380;4.654;2024-03-02T02:41:23;6.30;99.90
16907;DHT22;8570;52.380;4.654;2024-03-02T02:46:34;6.40;99.90
16907;DHT22;8570;52.380;4.654;2024-03-02T02:51:36;6.30;99.90
16907;DHT22;8570;52.380;4.654;2024-03-02T02:56:39;6.30;99.90
16907;DHT22;8570;52.380;4.654;2024-03-02T03:01:41;6.40;99.90
16907;DHT22;8570;52.380;4.654;2024-03-02T03:06:43;6.40;99.90
16907;DHT22;8570;52.380;4.654;2024-03-02T03:11:48;6.40;99.90
16907;DHT22;8570;52.380;4.654;2024-03-02T03:16:50;6.40;99.90
16907;DHT22;8570;52.380;4.654;2024-03-02T03:21:52;6.40;99.90
16907;DHT22;8570;52.380;4.654;2024-03-02T03:26:57;6.40;99.90
16907;DHT22;8570;52.380;4.654;2024-03-02T03:31:59;6.40;99.90
16907;DHT22;8570;52.380;4.654;2024-03-02T03:37:00;6.40;99.90
16907;DHT22;8570;52.380;4.654;2024-03-02T03:42:04;6.40;99.90
16907;DHT22;8570;52.380;4.654;2024-03-02T03:47:07;6.40;99.90
16907;DHT22;8570;52.380;4.654;2024-03-02T03:52:08;6.40;99.90
16907;DHT22;8570;52.380;4.654;2024-03-02T03:57:12;6.40;99.90
16907;DHT22;8570;52.380;4.654;2024-03-02T04:02:14;6.40;99.90
16907;DHT22;8570;52.380;4.654;2024-03-02T04:07:17;6.30;99.90
16907;DHT22;8570;52.380;4.654;2024-03-02T04:12:22;6.30;99.90
16907;DHT22;8570;52.380;4.654;2024-03-02T04:17:24;6.30;99.90
16907;DHT22;8570;52.380;4.654;2024-03-02T04:22:26;6.30;99.90
16907;DHT22;8570;52.380;4.654;2024-03-02T04:27:30;6.30;99.90
16907;DHT22;8570;52.380;4.654;2024-03-02T04:32:33;6.30;99.90
16907;DHT22;8570;52.380;4.654;2024-03-02T04:37:36;6.30;99.90
16907;DHT22;8570;52.380;4.654;2024-03-02T04:42:40;6.30;99.90
16907;DHT22;8570;52.380;4.654;2024-03-02T04:47:43;6.30;99.90
16907;DHT22;8570;52.380;4.654;2024-03-02T04:52:45;6.20;99.90
16907;DHT22;8570;52.380;4.654;2024-03-02T04:57:49;6.20;99.90
16907;DHT22;8570;52.380;4.654;2024-03-02T05:02:51;6.20;99.90
16907;DHT22;8570;52.380;4.654;2024-03-02T05:07:53;6.20;99.90
16907;DHT22;8570;52.380;4.654;2024-03-02T05:12:56;6.20;99.90
16907;DHT22;8570;52.380;4.654;2024-03-02T05:17:59;6.20;99.90
16907;DHT22;8570;52.380;4.654;2024-03-02T05:23:03;6.10;99.90
16907;DHT22;8570;52.380;4.654;2024-03-02T05:28:07;6.10;99.90
16907;DHT22;8570;52.380;4.654;2024-03-02T05:33:09;6.10;99.90
16907;DHT22;8570;52.380;4.654;2024-03-02T05:38:11;6.10;99.90
16907;DHT22;8570;52.380;4.654;2024-03-02T05:43:14;6.10;99.90
16907;DHT22;8570;52.380;4.654;2024-03-02T05:48:16;6.10;99.90
16907;DHT22;8570;52.380;4.654;2024-03-02T05:53:18;6.10;99.90
16907;DHT22;8570;52.380;4.654;2024-03-02T05:58:21;6.10;99.90
16907;DHT22;8570;52.380;4.654;2024-03-02T06:03:34;6.10;99.90
16907;DHT22;8570;52.380;4.654;2024-03-02T06:08:36;6.10;99.90
16907;DHT22;8570;52.380;4.654;2024-03-02T06:13:39;6.10;99.90
16907;DHT22;8570;52.380;4.654;2024-03-02T06:18:41;6.10;99.90
16907;DHT22;8570;52.380;4.654;2024-03-02T06:23:43;6.10;99.90
16907;DHT22;8570;52.380;4.654;2024-03-02T06:28:46;6.00;99.90
16907;DHT22;8570;52.380;4.654;2024-03-02T06:33:48;6.00;99.90
16907;DHT22;8570;52.380;4.654;2024-03-02T06:38:53;6.00;99.90
16907;DHT22;8570;52.380;4.654;2024-03-02T06:43:57;6.00;99.90
16907;DHT22;8570;52.380;4.654;2024-03-02T06:49:00;6.00;99.90
16907;DHT22;8570;52.380;4.654;2024-03-02T06:54:03;5.90;99.90
16907;DHT22;8570;52.380;4.654;2024-03-02T06:59:06;5.90;99.90
16907;DHT22;8570;52.380;4.654;2024-03-02T07:04:10;5.90;99.90
16907;DHT22;8570;52.380;4.654;2024-03-02T07:09:14;6.00;99.90
16907;DHT22;8570;52.380;4.654;2024-03-02T07:14:24;6.00;99.90
16907;DHT22;8570;52.380;4.654;2024-03-02T07:19:47;6.00;99.90
16907;DHT22;8570;52.380;4.654;2024-03-02T07:24:49;6.00;99.90
16907;DHT22;8570;52.380;4.654;2024-03-02T07:29:52;6.00;99.90
16907;DHT22;8570;52.380;4.654;2024-03-02T07:34:54;6.00;99.90
16907;DHT22;8570;52.380;4.654;2024-03-02T07:39:56;6.10;99.90
16907;DHT22;8570;52.380;4.654;2024-03-02T07:45:01;6.10;99.90
16907;DHT22;8570;52.380;4.654;2024-03-02T07:50:04;6.10;99.90
16907;DHT22;8570;52.380;4.654;2024-03-02T07:55:08;6.10;99.90
16907;DHT22;8570;52.380;4.654;2024-03-02T08:00:12;6.20;99.90
16907;DHT22;8570;52.380;4.654;2024-03-02T08:05:15;6.20;99.90
16907;DHT22;8570;52.380;4.654;2024-03-02T08:10:19;6.30;99.90
16907;DHT22;8570;52.380;4.654;2024-03-02T08:15:22;6.30;99.90
16907;DHT22;8570;52.380;4.654;2024-03-02T08:20:24;6.40;99.90
16907;DHT22;8570;52.380;4.654;2024-03-02T08:25:26;6.40;99.90
16907;DHT22;8570;52.380;4.654;2024-03-02T08:30:29;6.50;99.90
16907;DHT22;8570;52.380;4.654;2024-03-02T08:35:31;6.60;99.90
16907;DHT22;8570;52.380;4.654;2024-03-02T08:40:36;6.70;99.90
16907;DHT22;8570;52.380;4.654;2024-03-02T08:45:40;6.70;99.90
16907;DHT22;8570;52.380;4.654;2024-03-02T08:50:42;6.80;99.90
16907;DHT22;8570;52.380;4.654;2024-03-02T08:55:45;6.90;99.90
16907;DHT22;8570;52.380;4.654;2024-03-02T09:00:48;6.90;99.90
16907;DHT22;8570;52.380;4.654;2024-03-02T09:05:50;7.00;99.90
16907;DHT22;8570;52.380;4.654;2024-03-02T09:10:51;7.10;99.90
16907;DHT22;8570;52.380;4.654;2024-03-02T09:15:55;7.20;99.90
16907;DHT22;8570;52.380;4.654;2024-03-02T09:20:57;7.20;99.90
16907;DHT22;8570;52.380;4.654;2024-03-02T09:25:59;7.30;99.90
16907;DHT22;8570;52.380;4.654;2024-03-02T09:31:02;7.40;99.90
16907;DHT22;8570;52.380;4.654;2024-03-02T09:36:04;7.60;99.90
16907;DHT22;8570;52.380;4.654;2024-03-02T09:41:06;8.00;99.90
16907;DHT22;8570;52.380;4.654;2024-03-02T09:46:10;8.30;99.90
16907;DHT22;8570;52.380;4.654;2024-03-02T09:51:12;8.70;99.90
16907;DHT22;8570;52.380;4.654;2024-03-02T09:56:15;9.10;99.90
16907;DHT22;8570;52.380;4.654;2024-03-02T10:01:20;9.50;99.90
16907;DHT22;8570;52.380;4.654;2024-03-02T10:06:24;9.80;99.90
16907;DHT22;8570;52.380;4.654;2024-03-02T10:11:27;10.00;99.90
16907;DHT22;8570;52.380;4.654;2024-03-02T10:16:31;10.10;99.90
16907;DHT22;8570;52.380;4.654;2024-03-02T10:21:33;10.20;99.90
16907;DHT22;8570;52.380;4.654;2024-03-02T10:26:34;10.30;99.90
16907;DHT22;8570;52.380;4.654;2024-03-02T10:31:39;10.30;99.90
16907;DHT22;8570;52.380;4.654;2024-03-02T10:36:42;10.60;99.90
16907;DHT22;8570;52.380;4.654;2024-03-02T10:41:46;10.80;99.90
16907;DHT22;8570;52.380;4.654;2024-03-02T10:46:52;10.90;99.90
16907;DHT22;8570;52.380;4.654;2024-03-02T10:51:54;11.00;99.90
16907;DHT22;8570;52.380;4.654;2024-03-02T10:56:59;11.20;99.90
16907;DHT22;8570;52.380;4.654;2024-03-02T11:02:03;11.30;99.90
16907;DHT22;8570;52.380;4.654;2024-03-02T11:07:08;11.40;99.90
16907;DHT22;8570;52.380;4.654;2024-03-02T11:12:13;11.70;99.90
16907;DHT22;8570;52.380;4.654;2024-03-02T11:17:20;12.00;99.90
16907;DHT22;8570;52.380;4.654;2024-03-02T11:22:23;12.10;99.90
16907;DHT22;8570;52.380;4.654;2024-03-02T11:28:03;12.00;99.90
16907;DHT22;8570;52.380;4.654;2024-03-02T11:33:07;12.00;99.90
16907;DHT22;8570;52.380;4.654;2024-03-02T11:38:10;12.00;99.90
16907;DHT22;8570;52.380;4.654;2024-03-02T11:43:12;12.10;99.90
16907;DHT22;8570;52.380;4.654;2024-03-02T11:48:15;12.20;99.90
16907;DHT22;8570;52.380;4.654;2024-03-02T11:53:18;12.40;99.90
16907;DHT22;8570;52.380;4.654;2024-03-02T11:58:20;12.70;99.90
16907;DHT22;8570;52.380;4.654;2024-03-02T12:03:26;12.60;99.90
16907;DHT22;8570;52.380;4.654;2024-03-02T12:08:28;12.70;99.90
16907;DHT22;8570;52.380;4.654;2024-03-02T12:13:30;12.80;99.90
16907;DHT22;8570;52.380;4.654;2024-03-02T12:18:33;13.00;99.90
16907;DHT22;8570;52.380;4.654;2024-03-02T12:23:34;13.30;99.90
16907;DHT22;8570;52.380;4.654;2024-03-02T12:28:37;13.20;99.90
16907;DHT22;8570;52.380;4.654;2024-03-02T12:33:40;13.20;99.90
16907;DHT22;8570;52.380;4.654;2024-03-02T12:38:43;13.30;99.90
16907;DHT22;8570;52.380;4.654;2024-03-02T12:43:45;13.40;99.90
16907;DHT22;8570;52.380;4.654;2024-03-02T12:48:48;13.60;99.90
16907;DHT22;8570;52.380;4.654;2024-03-02T12:53:53;13.60;99.90
16907;DHT22;8570;52.380;4.654;2024-03-02T12:58:56;13.60;99.90
16907;DHT22;8570;52.380;4.654;2024-03-02T13:03:59;13.70;99.90
16907;DHT22;8570;52.380;4.654;2024-03-02T13:09:01;13.80;99.90
16907;DHT22;8570;52.380;4.654;2024-03-02T13:14:05;13.90;99.90
16907;DHT22;8570;52.380;4.654;2024-03-02T13:24:11;14.30;99.90
16907;DHT22;8570;52.380;4.654;2024-03-02T14:04:35;13.90;99.90
16907;DHT22;8570;52.380;4.654;2024-03-02T14:09:37;13.70;99.90
16907;DHT22;8570;52.380;4.654;2024-03-02T14:14:39;13.50;99.90
16907;DHT22;8570;52.380;4.654;2024-03-02T14:19:42;13.30;99.90
16907;DHT22;8570;52.380;4.654;2024-03-02T14:24:44;13.20;99.90
16907;DHT22;8570;52.380;4.654;2024-03-02T14:29:45;13.10;99.90
16907;DHT22;8570;52.380;4.654;2024-03-02T14:34:49;13.00;99.90
16907;DHT22;8570;52.380;4.654;2024-03-02T14:39:51;13.00;99.90
16907;DHT22;8570;52.380;4.654;2024-03-02T14:44:52;12.90;99.90
16907;DHT22;8570;52.380;4.654;2024-03-02T14:49:56;12.90;99.90
16907;DHT22;8570;52.380;4.654;2024-03-02T14:54:57;12.80;99.90
16907;DHT22;8570;52.380;4.654;2024-03-02T14:59:59;12.70;99.90
16907;DHT22;8570;52.380;4.654;2024-03-02T15:05:03;12.70;99.90
16907;DHT22;8570;52.380;4.654;2024-03-02T15:10:07;12.60;99.90
16907;DHT22;8570;52.380;4.654;2024-03-02T15:15:09;12.60;99.90
16907;DHT22;8570;52.380;4.654;2024-03-02T15:20:13;12.60;99.90
16907;DHT22;8570;52.380;4.654;2024-03-02T15:25:15;12.60;99.90
16907;DHT22;8570;52.380;4.654;2024-03-02T15:30:17;12.60;99.90
16907;DHT22;8570;52.380;4.654;2024-03-02T15:35:20;12.60;99.90
16907;DHT22;8570;52.380;4.654;2024-03-02T15:40:22;12.50;99.90
16907;DHT22;8570;52.380;4.654;2024-03-02T15:45:24;12.50;99.90
16907;DHT22;8570;52.380;4.654;2024-03-02T15:50:35;12.50;99.90
16907;DHT22;8570;52.380;4.654;2024-03-02T15:55:38;12.50;99.90
16907;DHT22;8570;52.380;4.654;2024-03-02T16:00:40;12.50;99.90
16907;DHT22;8570;52.380;4.654;2024-03-02T16:05:43;12.50;99.90
16907;DHT22;8570;52.380;4.654;2024-03-02T16:10:45;12.40;99.90
16907;DHT22;8570;52.380;4.654;2024-03-02T16:15:47;12.40;99.90
16907;DHT22;8570;52.380;4.654;2024-03-02T16:20:50;12.40;99.90
16907;DHT22;8570;52.380;4.654;2024-03-02T16:25:52;12.40;99.90
16907;DHT22;8570;52.380;4.654;2024-03-02T16:30:54;12.40;99.90
16907;DHT22;8570;52.380;4.654;2024-03-02T16:35:57;12.30;99.90
16907;DHT22;8570;52.380;4.654;2024-03-02T16:40:59;12.30;99.90
16907;DHT22;8570;52.380;4.654;2024-03-02T16:46:01;12.20;99.90
16907;DHT22;8570;52.380;4.654;2024-03-02T16:51:06;12.10;99.90
16907;DHT22;8570;52.380;4.654;2024-03-02T16:56:07;12.10;99.90
16907;DHT22;8570;52.380;4.654;2024-03-02T17:01:09;12.00;99.90
16907;DHT22;8570;52.380;4.654;2024-03-02T17:06:12;12.00;99.90
16907;DHT22;8570;52.380;4.654;2024-03-02T17:11:14;11.90;99.90
16907;DHT22;8570;52.380;4.654;2024-03-02T17:16:16;11.90;99.90
16907;DHT22;8570;52.380;4.654;2024-03-02T17:21:19;11.80;99.90
16907;DHT22;8570;52.380;4.654;2024-03-02T17:26:22;11.70;99.90
16907;DHT22;8570;52.380;4.654;2024-03-02T17:31:24;11.70;99.90
16907;DHT22;8570;52.380;4.654;2024-03-02T17:36:27;11.70;99.90
16907;DHT22;8570;52.380;4.654;2024-03-02T17:41:29;11.60;99.90
16907;DHT22;8570;52.380;4.654;2024-03-02T17:46:30;11.60;99.90
16907;DHT22;8570;52.380;4.654;2024-03-02T17:51:35;11.60;99.90
16907;DHT22;8570;52.380;4.654;2024-03-02T17:56:37;11.50;99.90
16907;DHT22;8570;52.380;4.654;2024-03-02T18:01:39;11.50;99.90
16907;DHT22;8570;52.380;4.654;2024-03-02T18:06:42;11.50;99.90
16907;DHT22;8570;52.380;4.654;2024-03-02T18:11:44;11.50;99.90
16907;DHT22;8570;52.380;4.654;2024-03-02T18:16:46;11.50;99.90
16907;DHT22;8570;52.380;4.654;2024-03-02T18:21:49;11.50;99.90
16907;DHT22;8570;52.380;4.654;2024-03-02T18:26:51;11.50;99.90
16907;DHT22;8570;52.380;4.654;2024-03-02T18:31:53;11.40;99.90
16907;DHT22;8570;52.380;4.654;2024-03-02T18:36:57;11.40;99.90
16907;DHT22;8570;52.380;4.654;2024-03-02T18:42:00;11.40;99.90
16907;DHT22;8570;52.380;4.654;2024-03-02T18:47:01;11.40;99.90
16907;DHT22;8570;52.380;4.654;2024-03-02T18:52:05;11.40;99.90
16907;DHT22;8570;52.380;4.654;2024-03-02T18:57:07;11.30;99.90
16907;DHT22;8570;52.380;4.654;2024-03-02T19:02:10;11.30;99.90
16907;DHT22;8570;52.380;4.654;2024-03-02T19:07:13;11.30;99.90
16907;DHT22;8570;52.380;4.654;2024-03-02T19:12:16;11.30;99.90
16907;DHT22;8570;52.380;4.654;2024-03-02T19:17:18;11.20;99.90
16907;DHT22;8570;52.380;4.654;2024-03-02T19:22:21;11.20;99.90
16907;DHT22;8570;52.380;4.654;2024-03-02T19:27:24;11.20;99.90
16907;DHT22;8570;52.380;4.654;2024-03-02T19:32:26;11.10;99.90
16907;DHT22;8570;52.380;4.654;2024-03-02T19:37:29;11.10;99.90
16907;DHT22;8570;52.380;4.654;2024-03-02T19:42:31;11.10;99.90
16907;DHT22;8570;52.380;4.654;2024-03-02T19:47:35;11.10;99.90
16907;DHT22;8570;52.380;4.654;2024-03-02T19:52:38;11.00;99.90
16907;DHT22;8570;52.380;4.654;2024-03-02T19:57:40;11.00;99.90
16907;DHT22;8570;52.380;4.654;2024-03-02T20:02:45;11.00;99.90
16907;DHT22;8570;52.380;4.654;2024-03-02T20:07:48;10.90;99.90
16907;DHT22;8570;52.380;4.654;2024-03-02T20:17:52;10.90;99.90
16907;DHT22;8570;52.380;4.654;2024-03-02T20:22:56;10.80;99.90
16907;DHT22;8570;52.380;4.654;2024-03-02T20:27:58;10.70;99.90
16907;DHT22;8570;52.380;4.654;2024-03-02T20:33:00;10.70;99.90
16907;DHT22;8570;52.380;4.654;2024-03-02T20:38:04;10.60;99.90
16907;DHT22;8570;52.380;4.654;2024-03-02T20:43:05;10.60;99.90
16907;DHT22;8570;52.380;4.654;2024-03-02T20:48:07;10.60;99.90
16907;DHT22;8570;52.380;4.654;2024-03-02T20:53:11;10.60;99.90
16907;DHT22;8570;52.380;4.654;2024-03-02T20:58:13;10.50;99.90
16907;DHT22;8570;52.380;4.654;2024-03-02T21:03:15;10.50;99.90
16907;DHT22;8570;52.380;4.654;2024-03-02T21:08:18;10.50;99.90
16907;DHT22;8570;52.380;4.654;2024-03-02T21:13:20;10.50;99.90
16907;DHT22;8570;52.380;4.654;2024-03-02T21:18:22;10.50;99.90
16907;DHT22;8570;52.380;4.654;2024-03-02T21:23:25;10.50;99.90
16907;DHT22;8570;52.380;4.654;2024-03-02T21:28:29;10.50;99.90
16907;DHT22;8570;52.380;4.654;2024-03-02T21:33:31;10.50;99.90
16907;DHT22;8570;52.380;4.654;2024-03-02T21:38:37;10.40;99.90
16907;DHT22;8570;52.380;4.654;2024-03-02T21:43:39;10.40;99.90
16907;DHT22;8570;52.380;4.654;2024-03-02T21:48:42;10.40;99.90
16907;DHT22;8570;52.380;4.654;2024-03-02T21:53:45;10.30;99.90
16907;DHT22;8570;52.380;4.654;2024-03-02T21:59:09;10.30;99.90
16907;DHT22;8570;52.380;4.654;2024-03-02T22:04:14;10.20;99.90
16907;DHT22;8570;52.380;4.654;2024-03-02T22:09:18;10.20;99.90
16907;DHT22;8570;52.380;4.654;2024-03-02T22:14:20;10.10;99.90
16907;DHT22;8570;52.380;4.654;2024-03-02T22:19:22;10.10;99.90
16907;DHT22;8570;52.380;4.654;2024-03-02T22:24:27;10.10;99.90
16907;DHT22;8570;52.380;4.654;2024-03-02T22:29:30;10.00;99.90
16907;DHT22;8570;52.380;4.654;2024-03-02T22:34:32;10.00;99.90
16907;DHT22;8570;52.380;4.654;2024-03-02T22:39:36;10.00;99.90
16907;DHT22;8570;52.380;4.654;2024-03-02T22:44:38;10.00;99.90
16907;DHT22;8570;52.380;4.654;2024-03-02T22:49:42;10.00;99.90
16907;DHT22;8570;52.380;4.654;2024-03-02T22:54:45;10.00;99.90
16907;DHT22;8570;52.380;4.654;2024-03-02T22:59:50;10.00;99.90
16907;DHT22;8570;52.380;4.654;2024-03-02T23:04:55;10.00;99.90
16907;DHT22;8570;52.380;4.654;2024-03-02T23:09:59;10.00;99.90
16907;DHT22;8570;52.380;4.654;2024-03-02T23:15:01;10.10;99.90
16907;DHT22;8570;52.380;4.654;2024-03-02T23:20:07;10.10;99.90
16907;DHT22;8570;52.380;4.654;2024-03-02T23:25:11;10.00;99.90
16907;DHT22;8570;52.380;4.654;2024-03-02T23:30:22;10.10;99.90
16907;DHT22;8570;52.380;4.654;2024-03-02T23:35:25;10.10;99.90
16907;DHT22;8570;52.380;4.654;2024-03-02T23:40:31;10.10;99.90
16907;DHT22;8570;52.380;4.654;2024-03-02T23:45:56;10.10;99.90
16907;DHT22;8570;52.380;4.654;2024-03-02T23:50:58;10.10;99.90
16907;DHT22;8570;52.380;4.654;2024-03-02T23:56:09;10.10;99.90
